Airfield :
LOGIN :

Register | Disclaimer

   EN    FR    IT 

 










Legend :    VFR   Marginal VFR   IFR   Intensive IFR   Very Intensive IFR
Visi :
Ceiling :
>= 8 km
>= 3000ft
5 to 8 km
1000 to 3000 ft
1500m to 5 km
500 to 1000 ft
800 to 1500m
200 to 500 ft
< 800m
< 200 ft
Symbols :   Thunderstorms  Fog  Heavy snow  Heavy precipitations  Wind > 20 kt
SIGMETs :     Misc.  Thunderstorms  Icing  Turbulence  Mountain Waves  Volcanic Ashes







- Airport Elevation : 306 ft
- IATA code : EMA
- Download approach charts


EGNX - Nottingham East Midlands

CURRENT METAR :
  • 131220Z 21019KT 9999 FEW008 BKN020 BKN034 06/05 Q0990

EXPIRED METARs :
  • 131150Z 21017KT 9999 BKN025 06/04 Q0991
  • 131120Z 21016KT 9999 SCT025 BKN039 05/04 Q0992
  • 131050Z 21016KT 9999 BKN028 05/04 Q0993
  • 131020Z 21015KT 9999 SCT029 05/03 Q0994

TAF TAF EGNX
Valid from the 13 at 12:00 until the 14 at 12:00 UTC


131103Z 1312/1412 22014KT 9999 SCT040
TEMPO 1312/1315 25018G32KT 6000 SHRA BKN005
PROB30
TEMPO 1312/1315 4000 +SHRA BKN003
TEMPO 1318/1409 27020G35KT 7000 SHRA BKN010
PROB30
TEMPO 1318/1408 1400 +SHRASN BKN004
ATIS : +44 1332 852 852 (ext 3201)
No reported NOTAMs for that airfield.



MET'MAP, your aeronautical weather chart ! - Copyright ORBIFLY December 2007 - Disclaimer

ORBIFLY MET'MAP TEAM :

Programming & Development : Alexandra Zaïnal
Concept & Development : Baudouin d'Aumeries
Co-Development & Prog : Marc-Olivier Méhu
Technical & hardware support : Manuel Goepfert

Contact : metmap@orbifly.com




SOURCES & CREDITS :

   NOAA